createdAt,value
2019-01-11T00:02:07.750Z,0.383911
2019-01-11T00:07:32.003Z,0.37384
2019-01-11T00:12:59.579Z,0.414124
2019-01-11T00:18:26.069Z,0.404053
2019-01-11T00:23:49.614Z,0.414124
2019-01-11T00:29:13.075Z,0.444336
2019-01-11T00:34:36.356Z,0.444336
2019-01-11T00:40:03.047Z,0.414124
2019-01-11T00:45:27.399Z,0.343628
2019-01-11T00:50:51.097Z,0.383911
2019-01-11T00:56:14.713Z,0.383911
2019-01-11T01:01:37.430Z,0.404053
2019-01-11T01:07:04.065Z,0.404053
2019-01-11T01:12:28.595Z,0.444336
2019-01-11T01:17:52.084Z,0.444336
2019-01-11T01:23:19.064Z,0.49469
2019-01-11T01:28:42.491Z,0.555115
2019-01-11T01:34:07.191Z,0.585327
2019-01-11T01:39:30.601Z,0.62561
2019-01-11T01:44:54.175Z,0.706177
2019-01-11T01:50:16.504Z,0.74646
2019-01-11T01:55:41.055Z,0.806885
2019-01-11T02:01:05.330Z,0.857239
2019-01-11T02:06:31.055Z,0.87738
2019-01-11T02:11:55.568Z,0.897522
2019-01-11T02:17:21.276Z,0.927734
2019-01-11T02:22:44.426Z,0.978088
2019-01-11T02:28:08.061Z,0.988159
2019-01-11T02:33:32.065Z,1.018372
2019-01-11T02:38:54.934Z,1.038513
2019-01-11T02:44:17.804Z,1.018372
2019-01-11T02:49:42.058Z,1.058655
2019-01-11T02:55:05.060Z,1.068726
2019-01-11T03:00:29.330Z,1.078796
2019-01-11T03:05:53.042Z,1.098938
2019-01-11T03:11:17.213Z,1.12915
2019-01-11T03:16:40.516Z,1.12915
2019-01-11T03:22:04.744Z,1.12915
2019-01-11T03:27:28.984Z,1.139221
2019-01-11T03:32:57.141Z,1.179504
2019-01-11T03:38:20.103Z,1.199646
2019-01-11T03:43:43.332Z,1.239929
2019-01-11T03:49:06.148Z,1.25
2019-01-11T03:54:30.243Z,1.25
2019-01-11T03:59:54.344Z,1.280212
2019-01-11T04:05:19.032Z,1.290283
2019-01-11T04:10:42.565Z,1.310425
2019-01-11T04:16:06.031Z,1.320496
2019-01-11T04:21:30.549Z,1.340637
2019-01-11T04:26:54.194Z,1.350708
2019-01-11T04:32:21.036Z,1.38092
2019-01-11T04:37:46.467Z,1.421204
2019-01-11T04:43:10.206Z,1.431274
2019-01-11T04:48:38.229Z,1.431274
2019-01-11T04:54:01.721Z,1.461487
2019-01-11T04:59:25.247Z,1.461487
2019-01-11T05:04:49.781Z,1.491699
2019-01-11T05:10:12.593Z,1.50177
2019-01-11T05:15:36.040Z,1.542053
2019-01-11T05:21:00.521Z,1.542053
2019-01-11T05:26:23.835Z,1.572266
2019-01-11T05:31:47.495Z,1.612549
2019-01-11T05:37:10.379Z,1.63269
2019-01-11T05:42:33.530Z,1.652832
2019-01-11T05:47:56.705Z,1.672974
2019-01-11T05:53:19.774Z,1.703186
2019-01-11T05:58:43.096Z,1.75354
2019-01-11T06:04:06.334Z,1.773682
2019-01-11T06:09:29.706Z,1.813965
2019-01-11T06:14:52.866Z,1.824036
2019-01-11T06:20:14.772Z,1.854248
2019-01-11T06:25:37.592Z,1.864319
2019-01-11T06:31:02.014Z,1.88446
2019-01-11T06:36:26.765Z,1.904602
2019-01-11T06:41:49.659Z,1.934814
2019-01-11T06:47:12.402Z,1.954956
2019-01-11T06:52:35.089Z,2.00531
2019-01-11T06:57:58.139Z,2.045593
2019-01-11T07:03:21.757Z,2.045593
2019-01-11T07:08:43.669Z,2.075806
2019-01-11T07:14:06.472Z,2.106018
2019-01-11T07:19:29.208Z,2.146301
2019-01-11T07:24:52.082Z,2.186584
2019-01-11T07:30:14.853Z,2.216797
2019-01-11T07:35:37.557Z,2.25708
2019-01-11T07:41:01.328Z,2.25708
2019-01-11T07:46:24.982Z,2.297363
2019-01-11T07:51:48.203Z,2.367859
2019-01-11T07:57:11.033Z,2.408142
2019-01-11T08:02:33.906Z,2.438354
2019-01-11T08:07:56.946Z,2.448425
2019-01-11T08:13:20.867Z,2.478638
2019-01-11T08:18:43.886Z,2.50885
2019-01-11T08:24:07.757Z,2.559204
2019-01-11T08:29:31.578Z,2.609558
2019-01-11T08:34:54.823Z,2.619629
2019-01-11T08:40:18.536Z,2.690125
2019-01-11T08:45:41.367Z,2.770691
2019-01-11T08:51:04.101Z,2.831116
2019-01-11T08:56:27.489Z,2.921753
2019-01-11T09:01:50.171Z,3.01239
2019-01-11T09:07:12.877Z,3.052673
2019-01-11T09:12:35.634Z,3.072815
2019-01-11T09:17:59.326Z,3.123169
2019-01-11T09:23:22.037Z,3.123169
2019-01-11T09:28:44.776Z,3.153381
2019-01-11T09:34:08.086Z,3.173523
2019-01-11T09:39:30.885Z,3.193665
2019-01-11T09:44:54.629Z,3.233948
2019-01-11T09:50:17.609Z,3.304443
2019-01-11T09:55:40.804Z,3.334656
2019-01-11T10:01:03.660Z,3.445435
2019-01-11T10:06:26.488Z,3.485718
2019-01-11T10:11:49.222Z,3.455505
2019-01-11T10:17:12.036Z,3.526001
2019-01-11T10:22:34.862Z,3.616638
2019-01-11T10:27:58.496Z,3.707275
2019-01-11T10:33:20.850Z,3.878479
2019-01-11T10:38:43.997Z,3.918762
2019-01-11T10:44:07.096Z,3.989258
2019-01-11T10:49:29.893Z,4.069824
2019-01-11T10:54:53.491Z,4.130249
2019-01-11T11:00:16.299Z,4.200745
2019-01-11T11:05:41.137Z,4.251099
2019-01-11T11:11:06.348Z,4.361877
2019-01-11T11:16:32.912Z,4.492798
2019-01-11T11:21:54.073Z,4.573364
2019-01-11T11:27:17.573Z,4.653931
2019-01-11T11:32:40.301Z,4.754639
2019-01-11T11:38:03.133Z,4.794922
2019-01-11T11:43:25.866Z,4.865417
2019-01-11T11:48:49.466Z,4.865417
2019-01-11T11:54:14.970Z,4.966125
2019-01-11T11:59:38.968Z,5.117188
2019-01-11T12:05:03.502Z,5.368958
2019-01-11T12:10:27.002Z,5.872498
2019-01-11T12:15:50.540Z,6.114197
2019-01-11T12:21:15.489Z,6.235046
2019-01-11T12:26:38.246Z,6.355896
2019-01-11T12:32:01.642Z,6.476746
2019-01-11T12:37:24.491Z,6.567383
2019-01-11T12:42:54.984Z,6.607666
2019-01-11T12:48:19.670Z,6.758728
2019-01-11T12:53:46.460Z,6.78894
2019-01-11T12:59:10.108Z,6.940002
2019-01-11T13:04:32.858Z,6.929932
2019-01-11T13:09:56.577Z,6.960144
2019-01-11T13:15:21.146Z,7.010498
2019-01-11T13:20:43.981Z,6.940002
2019-01-11T13:26:07.652Z,6.970215
2019-01-11T13:31:30.376Z,6.90979
2019-01-11T13:36:53.951Z,6.90979
2019-01-11T13:42:19.166Z,6.90979
2019-01-11T13:47:41.915Z,6.929932
2019-01-11T13:53:04.620Z,6.90979
2019-01-11T13:58:27.984Z,6.889648
2019-01-11T14:03:51.248Z,6.90979
2019-01-11T14:09:14.068Z,6.90979
2019-01-11T14:14:37.106Z,6.940002
2019-01-11T14:20:00.012Z,6.90979
2019-01-11T14:25:31.686Z,6.960144
2019-01-11T14:30:54.523Z,6.960144
2019-01-11T14:36:18.310Z,6.929932
2019-01-11T14:41:42.215Z,6.960144
2019-01-11T14:47:14.673Z,6.990356
2019-01-11T14:52:37.417Z,6.990356
2019-01-11T14:58:01.059Z,6.960144
2019-01-11T15:03:24.519Z,6.940002
2019-01-11T15:08:47.537Z,6.90979
2019-01-11T15:14:11.776Z,6.889648
2019-01-11T15:19:35.202Z,6.889648
2019-01-11T15:24:57.978Z,6.869507
2019-01-11T15:30:21.500Z,6.929932
2019-01-11T15:35:44.448Z,6.940002
2019-01-11T15:41:08.228Z,7.010498
2019-01-11T15:46:31.645Z,6.929932
2019-01-11T15:51:54.312Z,6.77887
2019-01-11T15:57:17.724Z,6.889648
2019-01-11T16:02:43.538Z,6.728516
2019-01-11T16:08:06.358Z,6.77887
2019-01-11T16:13:29.691Z,6.718445
2019-01-11T16:18:52.611Z,6.809082
2019-01-11T16:24:15.186Z,6.728516
2019-01-11T16:29:38.811Z,6.728516
2019-01-11T16:35:02.268Z,6.748657
2019-01-11T16:40:26.179Z,6.718445
2019-01-11T16:45:49.894Z,6.708374
2019-01-11T16:51:13.132Z,6.637878
2019-01-11T16:56:49.199Z,6.567383
2019-01-11T17:02:12.841Z,6.53717
2019-01-11T17:07:39.572Z,6.627808
2019-01-11T17:13:04.643Z,6.577454
2019-01-11T17:18:28.572Z,6.496887
2019-01-11T17:23:52.260Z,6.496887
2019-01-11T17:29:17.411Z,6.637878
2019-01-11T17:34:49.748Z,6.637878
2019-01-11T17:40:13.101Z,6.577454
2019-01-11T17:45:36.595Z,6.53717
2019-01-11T17:51:00.104Z,6.416321
2019-01-11T17:56:23.085Z,6.396179
2019-01-11T18:01:46.088Z,6.456604
2019-01-11T18:07:08.903Z,6.416321
2019-01-11T18:12:31.713Z,6.416321
2019-01-11T18:17:54.589Z,6.496887
2019-01-11T18:23:19.067Z,6.426392
2019-01-11T18:28:42.074Z,6.456604
2019-01-11T18:34:05.685Z,6.396179
2019-01-11T18:39:28.421Z,6.396179
2019-01-11T18:44:51.573Z,6.376038
2019-01-11T18:50:14.354Z,6.426392
2019-01-11T18:55:38.058Z,6.386108
2019-01-11T19:01:01.928Z,6.345825
2019-01-11T19:06:25.568Z,6.386108
2019-01-11T19:11:48.431Z,6.376038
2019-01-11T19:17:12.077Z,6.345825
2019-01-11T19:22:35.820Z,6.376038
2019-01-11T19:28:01.154Z,6.456604
2019-01-11T19:33:24.265Z,6.506958
2019-01-11T19:38:55.812Z,6.456604
2019-01-11T19:44:29.312Z,6.416321
2019-01-11T19:50:02.456Z,6.496887
2019-01-11T19:55:25.432Z,6.416321
2019-01-11T20:00:57.949Z,6.396179
2019-01-11T20:06:30.929Z,6.386108
2019-01-11T20:12:02.882Z,6.376038
2019-01-11T20:17:29.360Z,6.396179
2019-01-11T20:23:02.306Z,6.355896
2019-01-11T20:28:34.785Z,6.265259
2019-01-11T20:33:58.571Z,6.235046
2019-01-11T20:39:33.822Z,6.245117
2019-01-11T20:45:08.103Z,6.27533
2019-01-11T20:50:31.011Z,6.295471
2019-01-11T20:55:55.005Z,6.345825
2019-01-11T21:01:19.700Z,6.386108
2019-01-11T21:06:52.538Z,6.386108
2019-01-11T21:12:28.345Z,6.295471
2019-01-11T21:17:51.187Z,6.355896
2019-01-11T21:23:23.588Z,6.386108
2019-01-11T21:28:57.286Z,6.295471
2019-01-11T21:34:21.394Z,6.295471
2019-01-11T21:39:56.325Z,6.204834
2019-01-11T21:45:31.805Z,6.214905
2019-01-11T21:50:54.872Z,6.235046
2019-01-11T21:56:28.865Z,6.214905
2019-01-11T22:01:51.610Z,6.315613
2019-01-11T22:07:15.764Z,6.325684
2019-01-11T22:12:38.729Z,6.325684
2019-01-11T22:24:14.811Z,6.315613
2019-01-11T22:29:37.619Z,6.235046
2019-01-11T22:35:02.548Z,6.245117
2019-01-11T22:40:26.049Z,6.174622
2019-01-11T22:45:49.095Z,6.204834
2019-01-11T22:51:19.415Z,6.194763
2019-01-11T22:56:43.535Z,6.204834
2019-01-11T23:02:06.451Z,6.174622
2019-01-11T23:07:30.370Z,6.114197
2019-01-11T23:13:04.390Z,6.083984
2019-01-11T23:18:27.981Z,6.03363
2019-01-11T23:23:52.404Z,6.013489
2019-01-11T23:29:16.194Z,6.013489
2019-01-11T23:34:38.977Z,5.983276
2019-01-11T23:40:01.924Z,5.932922
2019-01-11T23:45:27.630Z,5.922852
2019-01-11T23:50:50.368Z,5.852356
2019-01-11T23:56:13.169Z,5.872498
